Sonic Adventure (DX): Time Rankings

Records: Times | Rings | Scores | Races | Bosses | Freestyle
Leaders: Times | Rings | Scores | Races | Bosses | Freestyle | Overall
Rank Player Percent Points Date
1 Gamepro011 99.2% 40 07-19-18
2 Sonicspeedruner 98.3% 95 07-19-18
3 Dashjump 94.5% 308 07-19-18
4 Jawzun 94.5% 311 07-19-18
5 DarkPolarNight 93.6% 361 07-19-18
6 drminus 91.4% 485 07-19-18
7 F-Man 91.3% 491 07-19-18
8 THC98 91.0% 510 07-19-18
9 ike6252 88.9% 627 07-19-18
10 Avento128bits 88.6% 648 07-19-18
11 francisco 88.3% 662 07-19-18
12 ethmar 87.9% 685 07-19-18
13 DarkspinesSonic 87.8% 691 07-19-18
14 Marth 87.8% 693 07-19-18
15 frankoredstrato 86.3% 775 07-19-18
16 TheRealShadnic 84.7% 866 07-19-18
17 chainchumper 84.6% 875 07-19-18
18 Paragod 83.7% 924 07-19-18
19 HyperSonic7701 83.4% 940 07-19-18
20 Calfd 83.1% 960 07-19-18
21 InferSaime 80.2% 1120 07-19-18
22 Coolfansonic 80.2% 1125 07-19-18
23 Stefan 79.0% 1191 07-19-18
24 PfoSonic 78.6% 1216 07-19-18
25 bertin 76.7% 1320 07-19-18
26 yoshifan 76.2% 1351 07-19-18
27 Dave Cramer 74.7% 1435 07-19-18
28 RPGnutter 74.4% 1451 07-19-18
29 sonicam 72.7% 1547 07-19-18
30 Cybrax 72.6% 1557 07-19-18
31 Ring Rush 69.9% 1706 07-19-18
32 Nim 69.2% 1750 07-19-18
33 mike89 69.1% 1751 07-19-18
34 NintenDan 68.8% 1770 07-19-18
35 a_moustache 67.5% 1846 07-19-18
36 chaos shadow 65.7% 1948 07-19-18
37 SkyLights 65.3% 1968 07-19-18
38 Combo 64.0% 2043 07-19-18
39 Dekuboy 63.5% 2075 07-19-18
40 Niczur 62.8% 2114 07-19-18
41 SADXTryHard 61.6% 2179 07-19-18
42 P1 Pause 61.1% 2211 07-19-18
43 Groudon199 59.1% 2320 07-19-18
44 Shadow Jacky 58.5% 2359 07-19-18
45 Game_Complete 58.4% 2362 07-19-18
46 AxlThunder 58.3% 2367 07-19-18
47 VMU Player Banned 57.5% 2412 07-19-18
48 Thorn 57.2% 2432 07-19-18
49 SB737 56.1% 2493 07-19-18
50 The Knuckles Chao 55.9% 2502 07-19-18
51 Chao_Fan 55.6% 2522 07-19-18
52 SadisticMystic 55.5% 2529 07-19-18
53 Mastakirby 55.3% 2540 07-19-18
54 Parax 55.2% 2542 07-19-18
55 KinkyCadence 54.5% 2584 07-19-18
56 LittleBigness 54.4% 2587 07-19-18
56 OmegaDJ 54.4% 2587 07-19-18
58 mauserman 54.3% 2593 07-19-18
59 Psyknux 54.1% 2605 07-19-18
60 Auriman1 53.9% 2616 07-19-18
61 magnum12 53.7% 2628 07-19-18
62 Turbos 53.4% 2647 07-19-18
63 GerbilSoft 52.7% 2685 07-19-18
64 GreatStar 52.4% 2701 07-19-18
65 Webber3000 52.1% 2723 07-19-18
66 Hipertails12 51.1% 2776 07-19-18
67 N 51.0% 2783 07-19-18
68 James_Bertolli 48.9% 2901 07-19-18
69 Cream147 48.5% 2925 07-19-18
70 welldooder64 48.0% 2951 07-19-18
71 Skylace 48.0% 2956 07-19-18
72 Omega Rafael Santos 47.6% 2978 07-19-18
73 Quartz 47.4% 2988 07-19-18
74 Diamond 47.2% 2997 07-19-18
75 Psymar 47.1% 3002 07-19-18
76 SonicWinDX 46.4% 3044 07-19-18
77 teamblackarms 46.1% 3059 07-19-18
78 Andrea Ritsu 45.5% 3095 07-19-18
78 Cyan Ryan 45.5% 3095 07-19-18
80 buddychaos0415 45.2% 3114 07-19-18
81 SilverSonic 44.8% 3135 07-19-18
82 paulie9990 44.5% 3152 07-19-18
83 SilvertheAlmighty 44.0% 3178 07-19-18
84 itsPersonnal 43.7% 3200 07-19-18
85 WeegeeZV 43.6% 3202 07-19-18
86 metanightmare22 43.3% 3220 07-19-18
87 lordmetalsonic 41.1% 3344 07-19-18
88 Arch 40.6% 3373 07-19-18
89 Termon 39.9% 3413 07-19-18
90 videogamemaster777 39.8% 3422 07-19-18
91 supersonicfan 39.4% 3442 07-19-18
92 Drakodan 38.9% 3468 07-19-18
93 Kanimayo_Jp 38.7% 3481 07-19-18
94 LilZero 38.6% 3489 07-19-18
95 supersonic465 38.3% 3504 07-19-18
96 FuzZerd 38.3% 3506 07-19-18
97 JamminX42 37.7% 3539 07-19-18
98 eggFL 37.6% 3542 07-19-18
99 BigAL49 37.4% 3557 07-19-18
100 Don 36.9% 3583 07-19-18
101 danieldude 36.9% 3584 07-19-18
102 Siavash Tazari 36.1% 3630 07-19-18
103 Fr3nZy 35.8% 3645 07-19-18
104 f0rever_zer0 35.1% 3684 07-19-18
105 Cod4Scopes 34.9% 3698 07-19-18
106 LinksDarkArrows 34.1% 3744 07-19-18
107 Therio 33.9% 3756 07-19-18
108 Austinf 33.5% 3778 07-19-18
109 elecmouse101 33.3% 3791 07-19-18
110 Staf 32.9% 3809 07-19-18
111 MiStEr_ShAoLiN 32.6% 3830 07-19-18
112 Twilisailor 32.5% 3835 07-19-18
113 ModifiedMonkee 32.3% 3847 07-19-18
114 BrokenArthritis 32.1% 3857 07-19-18
115 videogamer1014 32.1% 3858 07-19-18
116 Xia 31.7% 3882 07-19-18
117 AC-Tygo 31.3% 3901 07-19-18
118 welshmoose05 31.2% 3907 07-19-18
119 OddCook 30.5% 3949 07-19-18
120 The Great Lord Mick 30.2% 3967 07-19-18
121 Aitamen 29.8% 3989 07-19-18
122 Mcshuggets 29.7% 3991 07-19-18
123 Maxinfamily 29.7% 3995 07-19-18
124 Matt_TY 29.2% 4020 07-19-18
125 joecoolgames 29.1% 4029 07-19-18
126 dabestgamer 29.0% 4034 07-19-18
127 SuperBlitzCraig 28.6% 4056 07-19-18
128 Irregular Zero 28.5% 4060 07-19-18
129 CoEmpathy 28.0% 4088 07-19-18
130 SuperSonic101 27.7% 4108 07-19-18
131 Shadowthegreat 27.6% 4111 07-19-18
131 superjupi 27.6% 4111 07-19-18
133 Rolken 27.3% 4132 07-19-18
134 thewaytodawnnn 27.0% 4148 07-19-18
135 sonamyfan666 26.7% 4164 07-19-18
136 koinu93 26.7% 4166 07-19-18
137 Hunters13 26.7% 4167 07-19-18
138 iarebored 26.6% 4171 07-19-18
139 SaviourDC 26.4% 4179 07-19-18
139 Spinballwizard 26.4% 4179 07-19-18
141 SonicKnuckles 26.4% 4184 07-19-18
142 EngiNerd 25.3% 4246 07-19-18
143 adf 25.2% 4247 07-19-18
144 Megaman EXE565 24.5% 4292 07-19-18
145 The T 24.2% 4305 07-19-18
146 Sonic Singularity 23.7% 4336 07-19-18
147 Platformer 23.3% 4357 07-19-18
148 timpkmn89 23.0% 4374 07-19-18
149 Pokemonmaster888 23.0% 4375 07-19-18
149 SeaWolf 23.0% 4375 07-19-18
151 Swift Hobo 22.6% 4400 07-19-18
152 Sondow 22.3% 4417 07-19-18
153 Rickyman48 21.8% 4440 07-19-18
154 KitsuneYamaro 21.6% 4456 07-19-18
155 FoxBoy 21.4% 4468 07-19-18
156 TFEC Headshot 20.8% 4499 07-19-18
157 Kogen Player Banned 20.8% 4502 07-19-18
158 Jerzia 20.5% 4516 07-19-18
159 Starlight Sable 20.0% 4544 07-19-18
160 HyperSonic64 19.6% 4566 07-19-18
161 IsisDazs 19.4% 4577 07-19-18
162 crazy1993 19.2% 4590 07-19-18
163 Powerjohn25 19.2% 4592 07-19-18
164 andres430 19.0% 4600 07-19-18
165 SonicU260 18.1% 4655 07-19-18
166 MPit08 17.7% 4677 07-19-18
167 Swinkly 17.5% 4690 07-19-18
168 SonicAD 17.4% 4691 07-19-18
169 sonicd5 17.2% 4704 07-19-18
170 iSonicKid2K 17.1% 4712 07-19-18
171 dShadow 16.9% 4722 07-19-18
172 Cutiefox 16.5% 4745 07-19-18
173 Chawkk 16.4% 4747 07-19-18
174 Monkeh 16.1% 4768 07-19-18
175 Miles9999 16.0% 4774 07-19-18
176 Crispian 15.7% 4787 07-19-18
177 DaDude 15.3% 4814 07-19-18
178 Drflash55 15.1% 4824 07-19-18
179 Bass 15.0% 4828 07-19-18
180 Cruizer 14.8% 4840 07-19-18
181 Destroyer121121 14.8% 4843 07-19-18
182 Badlex727 14.7% 4844 07-19-18
183 superiorsonic 14.5% 4855 07-19-18
184 neaolas 14.5% 4859 07-19-18
185 zapp 14.4% 4866 07-19-18
186 Yish 14.3% 4869 07-19-18
187 UninspiredUsername 14.2% 4876 07-19-18
188 gamefreak1292 13.8% 4896 07-19-18
189 Cooljay 13.7% 4905 07-19-18
190 Sora_yx 13.3% 4927 07-19-18
191 Chaos_Overlord 12.8% 4953 07-19-18
192 GarnetPrincess 12.6% 4966 07-19-18
193 Valfore 12.4% 4978 07-19-18
194 Dage4Aquatic 12.0% 5002 07-19-18
195 soniccoloursunleashed 11.9% 5003 07-19-18
196 ShinigamiMachine 11.7% 5015 07-19-18
197 booo95 11.4% 5035 07-19-18
198 Sonicsuperstar1 11.3% 5041 07-19-18
199 sonicspeed 11.0% 5059 07-19-18
200 SirTobbii 10.9% 5063 07-19-18
201 Werey 10.8% 5066 07-19-18
202 FocusSight64 10.8% 5069 07-19-18
203 Jua Rever 10.6% 5078 07-19-18
203 Mo Player Banned 10.6% 5078 07-19-18
205 Sithwarrior26 9.6% 5135 07-19-18
206 Venick409 9.6% 5136 07-19-18
207 nman36 9.6% 5138 07-19-18
208 ingx24 9.1% 5165 07-19-18
209 CyberShadow 9.0% 5170 07-19-18
210 dekki1234 8.9% 5176 07-19-18
211 Fozer 8.6% 5191 07-19-18
212 Colomb_30 8.6% 5195 07-19-18
213 Egor305 8.5% 5200 07-19-18
214 Regano1000 8.3% 5209 07-19-18
215 1stKirbyever 8.1% 5222 07-19-18
216 douglas 8.1% 5223 07-19-18
217 nuckrieg 7.9% 5232 07-19-18
218 TimTH 7.8% 5239 07-19-18
219 Brian_pso 7.7% 5243 07-19-18
220 wheatrich 7.5% 5254 07-19-18
221 Zip 7.4% 5260 07-19-18
222 Th4tN1nj4Turtl3 7.4% 5261 07-19-18
223 TakaRikka 7.4% 5264 07-19-18
224 niscool 7.2% 5274 07-19-18
225 Mariosonic15 7.0% 5284 07-19-18
226 ieatatsonic 6.7% 5300 07-19-18
226 MStitomix 6.7% 5300 07-19-18
226 Triseena 6.7% 5300 07-19-18
229 Sm4sh 6.7% 5304 07-19-18
230 HermitHelmet 6.6% 5305 07-19-18
231 Cort_pso 6.3% 5324 07-19-18
232 Artie 6.3% 5325 07-19-18
233 Got4n 6.2% 5327 07-19-18
234 xXMegaManXx 6.2% 5331 07-19-18
235 BlankTH 6.0% 5339 07-19-18
236 Jose_15 5.9% 5344 07-19-18
237 SuperSonicfan9595 5.7% 5357 07-19-18
238 Richied 5.6% 5361 07-19-18
239 Ace747 5.5% 5368 07-19-18
240 HHNNBBHHN 5.4% 5376 07-19-18
241 Aiko 5.2% 5384 07-19-18
241 Paixii 5.2% 5384 07-19-18
243 slade23 5.0% 5398 07-19-18
244 Mankster101 4.9% 5401 07-19-18
245 BallzeH 4.9% 5402 07-19-18
246 FSSRandomvids 4.9% 5406 07-19-18
247 ArcticDragon 4.8% 5407 07-19-18
248 PsyBorg 4.8% 5408 07-19-18
249 BecauseWarAnvil 4.8% 5409 07-19-18
250 Jamixesa 4.7% 5415 07-19-18
251 Nickson98 4.6% 5418 07-19-18
252 Crydio 4.5% 5425 07-19-18
253 TheUltraBlur 4.4% 5430 07-19-18
254 MarewBFN 4.2% 5441 07-19-18
255 tal39h 4.2% 5443 07-19-18
256 stanski 4.2% 5444 07-19-18
257 ALundstrom10 4.2% 5445 07-19-18
258 knuckles_sonic8 4.0% 5457 07-19-18
259 Blue Infamy 3.9% 5459 07-19-18
260 p0ker 3.9% 5461 07-19-18
261 R3FR4G 3.7% 5469 07-19-18
262 ErrortheCucco 3.7% 5470 07-19-18
263 Rikum22 3.7% 5473 07-19-18
264 sonic1001 3.5% 5481 07-19-18
265 TheChaosEmeraIds 3.5% 5485 07-19-18
266 syco1098 3.4% 5488 07-19-18
267 AJSIV 3.4% 5490 07-19-18
268 Sonic the Hedgehod16 3.3% 5493 07-19-18
269 ASINISTERTACO 3.2% 5500 07-19-18
270 sonicfan9 3.1% 5506 07-19-18
271 MK 2.9% 5515 07-19-18
271 themachoman202 2.9% 5515 07-19-18
273 Fivavoa 2.8% 5524 07-19-18
274 Mr. Jones 2.7% 5526 07-19-18
275 djmat 2.7% 5528 07-19-18
276 arcfx1985 2.7% 5529 07-19-18
276 BlackArmsShadow 2.7% 5529 07-19-18
278 ptorflaxendrosis 2.6% 5533 07-19-18
279 Sonique Hedgehog 2.6% 5534 07-19-18
280 FlandreScarlet9999vr 2.6% 5537 07-19-18
281 Zeldocto 2.5% 5539 07-19-18
282 KaM Mark MaK 2.4% 5543 07-19-18
283 BeeAwwb 2.4% 5545 07-19-18
284 ShadouZaHejjihoggu 2.3% 5550 07-19-18
285 darkstarblaze 2.3% 5552 07-19-18
286 Sarger001 2.2% 5555 07-19-18
287 Sonic The Star 2.2% 5558 07-19-18
288 darkersupershadic 2.2% 5559 07-19-18
289 SpiritDragon1995 2.1% 5560 07-19-18
290 sonic29887 2.0% 5566 07-19-18
291 Grady219 2.0% 5567 07-19-18
292 BioShadow 2.0% 5568 07-19-18
293 shadowblast63 Player Banned 1.9% 5572 07-19-18
294 Jawaah 1.9% 5574 07-19-18
295 Antek 1.9% 5576 07-19-18
296 Klaus 1.8% 5578 07-19-18
297 SkyBon 1.7% 5583 07-19-18
298 Shanekilz 1.4% 5600 07-19-18
299 isaihtb11 1.4% 5605 07-19-18
300 zaktu40 1.3% 5606 07-19-18
301 OhNoes! 1.3% 5607 07-19-18
302 gaara1234 1.3% 5609 07-19-18
303 S-MS32X-S 1.2% 5613 07-19-18
304 MastaToken 1.2% 5616 07-19-18
305 Mister_Slick 1.0% 5623 07-19-18
306 ArthurVGCP 1.0% 5624 07-19-18
307 Rush Hero 1.0% 5626 07-19-18
307 Sonic06Fan 1.0% 5626 07-19-18
309 ChaosNexuss 1.0% 5627 07-19-18
310 SonicMega167 0.9% 5632 07-19-18
311 oTaiIilLsS 0.8% 5634 07-19-18
312 gamed00d 0.8% 5635 07-19-18
312 SilverK 0.8% 5635 07-19-18
314 Heroes_Hater 0.7% 5643 07-19-18
315 Redd 0.7% 5645 07-19-18
316 Burningskull123 0.5% 5651 07-19-18
317 Sonicontherun 0.4% 5662 07-19-18
318 antiwwe 0.2% 5668 07-19-18
319 Iwannabelink 0.2% 5670 07-19-18
320 Genuine Hedgehog 0.2% 5671 07-19-18
320 SonataSpinDash 0.2% 5671 07-19-18
322 dragondragon18 0.1% 5675 07-19-18
323 SonicK100 0.1% 5677 07-19-18
324 Tyrouble 0.0% 5682 07-19-18
325 LancexExWx 0.0% 5685 07-19-18
325 neji_hyuuga 0.0% 5685 07-19-18
325 Over 0.0% 5685 07-19-18
325 sdj6707 Player Banned 0.0% 5685 07-19-18
325 Tran Sonic Fan Player Banned 0.0% 5685 07-19-18

This page is using the New Data Table System. [FUTURE]

Game ID: 3 | Category ID: 1
Hits: 9,003 | Hits This Month: 31 | DB Calls: 24 | Mem Usage: 5.47 MB | Time: 0.20s | Printable

The Sonic Center v3.9
Copyright 2003-2011 by The Sonic Center Team.